sensor_id;sensor_type;location;lat;lon;timestamp;P1;durP1;ratioP1;P2;durP2;ratioP2
19846;SDS011;10084;50.518;8.588;2024-02-15T00:01:33;0.13;;;0.13;;
19846;SDS011;10084;50.518;8.588;2024-02-15T00:03:59;1.43;;;0.27;;
19846;SDS011;10084;50.518;8.588;2024-02-15T00:06:25;0.30;;;0.30;;
19846;SDS011;10084;50.518;8.588;2024-02-15T00:08:50;0.87;;;0.47;;
19846;SDS011;10084;50.518;8.588;2024-02-15T00:11:17;0.07;;;0.07;;
19846;SDS011;10084;50.518;8.588;2024-02-15T00:13:43;0.87;;;0.30;;
19846;SDS011;10084;50.518;8.588;2024-02-15T00:16:12;0.10;;;0.10;;
19846;SDS011;10084;50.518;8.588;2024-02-15T00:18:40;0.17;;;0.17;;
19846;SDS011;10084;50.518;8.588;2024-02-15T00:21:05;0.10;;;0.10;;
19846;SDS011;10084;50.518;8.588;2024-02-15T00:23:31;0.13;;;0.13;;
19846;SDS011;10084;50.518;8.588;2024-02-15T00:25:57;0.30;;;0.30;;
19846;SDS011;10084;50.518;8.588;2024-02-15T00:28:24;0.10;;;0.10;;
19846;SDS011;10084;50.518;8.588;2024-02-15T00:30:52;0.67;;;0.30;;
19846;SDS011;10084;50.518;8.588;2024-02-15T00:33:18;0.40;;;0.10;;
19846;SDS011;10084;50.518;8.588;2024-02-15T00:35:44;0.10;;;0.10;;
19846;SDS011;10084;50.518;8.588;2024-02-15T00:38:10;0.47;;;0.20;;
19846;SDS011;10084;50.518;8.588;2024-02-15T00:40:35;0.40;;;0.27;;
19846;SDS011;10084;50.518;8.588;2024-02-15T00:43:01;0.17;;;0.10;;
19846;SDS011;10084;50.518;8.588;2024-02-15T00:45:28;0.23;;;0.23;;
19846;SDS011;10084;50.518;8.588;2024-02-15T00:47:53;0.10;;;0.10;;
19846;SDS011;10084;50.518;8.588;2024-02-15T00:50:21;0.40;;;0.30;;
19846;SDS011;10084;50.518;8.588;2024-02-15T00:52:47;0.10;;;0.10;;
19846;SDS011;10084;50.518;8.588;2024-02-15T00:55:12;0.23;;;0.10;;
19846;SDS011;10084;50.518;8.588;2024-02-15T00:57:38;0.30;;;0.30;;
19846;SDS011;10084;50.518;8.588;2024-02-15T01:00:05;0.10;;;0.00;;
19846;SDS011;10084;50.518;8.588;2024-02-15T01:02:34;0.13;;;0.10;;
19846;SDS011;10084;50.518;8.588;2024-02-15T01:05:01;0.20;;;0.20;;
19846;SDS011;10084;50.518;8.588;2024-02-15T01:07:27;0.40;;;0.30;;
19846;SDS011;10084;50.518;8.588;2024-02-15T01:09:53;1.17;;;0.30;;
19846;SDS011;10084;50.518;8.588;2024-02-15T01:12:19;0.63;;;0.63;;
19846;SDS011;10084;50.518;8.588;2024-02-15T01:14:46;0.10;;;0.10;;
19846;SDS011;10084;50.518;8.588;2024-02-15T01:17:12;0.27;;;0.20;;
19846;SDS011;10084;50.518;8.588;2024-02-15T01:19:39;0.30;;;0.20;;
19846;SDS011;10084;50.518;8.588;2024-02-15T01:22:04;2.77;;;1.70;;
19846;SDS011;10084;50.518;8.588;2024-02-15T01:24:32;2.17;;;1.17;;
19846;SDS011;10084;50.518;8.588;2024-02-15T01:26:58;1.40;;;1.10;;
19846;SDS011;10084;50.518;8.588;2024-02-15T01:29:24;3.53;;;1.10;;
19846;SDS011;10084;50.518;8.588;2024-02-15T01:31:51;1.37;;;0.70;;
19846;SDS011;10084;50.518;8.588;2024-02-15T01:34:17;0.60;;;0.30;;
19846;SDS011;10084;50.518;8.588;2024-02-15T01:36:43;0.60;;;0.50;;
19846;SDS011;10084;50.518;8.588;2024-02-15T01:39:09;1.23;;;0.70;;
19846;SDS011;10084;50.518;8.588;2024-02-15T01:41:35;7.70;;;1.50;;
19846;SDS011;10084;50.518;8.588;2024-02-15T01:44:01;0.83;;;0.40;;
19846;SDS011;10084;50.518;8.588;2024-02-15T01:46:27;1.10;;;0.90;;
19846;SDS011;10084;50.518;8.588;2024-02-15T01:48:55;0.90;;;0.63;;
19846;SDS011;10084;50.518;8.588;2024-02-15T01:51:21;0.80;;;0.67;;
19846;SDS011;10084;50.518;8.588;2024-02-15T01:53:49;0.20;;;0.20;;
19846;SDS011;10084;50.518;8.588;2024-02-15T01:56:15;0.27;;;0.13;;
19846;SDS011;10084;50.518;8.588;2024-02-15T01:58:42;0.10;;;0.10;;
19846;SDS011;10084;50.518;8.588;2024-02-15T02:01:10;0.30;;;0.30;;
19846;SDS011;10084;50.518;8.588;2024-02-15T02:03:36;0.73;;;0.50;;
19846;SDS011;10084;50.518;8.588;2024-02-15T02:06:04;5.60;;;0.53;;
19846;SDS011;10084;50.518;8.588;2024-02-15T02:08:30;0.37;;;0.30;;
19846;SDS011;10084;50.518;8.588;2024-02-15T02:10:55;0.60;;;0.30;;
19846;SDS011;10084;50.518;8.588;2024-02-15T02:13:22;0.83;;;0.50;;
19846;SDS011;10084;50.518;8.588;2024-02-15T02:15:49;4.63;;;0.40;;
19846;SDS011;10084;50.518;8.588;2024-02-15T02:18:15;0.27;;;0.13;;
19846;SDS011;10084;50.518;8.588;2024-02-15T02:20:41;0.63;;;0.20;;
19846;SDS011;10084;50.518;8.588;2024-02-15T02:23:09;0.47;;;0.30;;
19846;SDS011;10084;50.518;8.588;2024-02-15T02:25:39;0.57;;;0.33;;
19846;SDS011;10084;50.518;8.588;2024-02-15T02:28:07;0.40;;;0.40;;
19846;SDS011;10084;50.518;8.588;2024-02-15T02:30:34;0.87;;;0.60;;
19846;SDS011;10084;50.518;8.588;2024-02-15T02:33:00;1.73;;;1.27;;
19846;SDS011;10084;50.518;8.588;2024-02-15T02:35:27;1.80;;;1.37;;
19846;SDS011;10084;50.518;8.588;2024-02-15T02:37:56;1.63;;;1.27;;
19846;SDS011;10084;50.518;8.588;2024-02-15T02:40:22;4.47;;;1.23;;
19846;SDS011;10084;50.518;8.588;2024-02-15T02:42:49;2.20;;;1.83;;
19846;SDS011;10084;50.518;8.588;2024-02-15T02:45:16;2.70;;;1.63;;
19846;SDS011;10084;50.518;8.588;2024-02-15T02:47:51;4.57;;;0.70;;
19846;SDS011;10084;50.518;8.588;2024-02-15T02:50:17;1.47;;;0.87;;
19846;SDS011;10084;50.518;8.588;2024-02-15T02:52:44;1.10;;;0.63;;
19846;SDS011;10084;50.518;8.588;2024-02-15T02:55:10;1.47;;;1.30;;
19846;SDS011;10084;50.518;8.588;2024-02-15T02:57:36;1.37;;;0.90;;
19846;SDS011;10084;50.518;8.588;2024-02-15T03:00:03;6.60;;;0.80;;
19846;SDS011;10084;50.518;8.588;2024-02-15T03:02:34;0.93;;;0.93;;
19846;SDS011;10084;50.518;8.588;2024-02-15T03:05:04;1.87;;;1.03;;
19846;SDS011;10084;50.518;8.588;2024-02-15T03:07:37;0.73;;;0.70;;
19846;SDS011;10084;50.518;8.588;2024-02-15T03:10:06;0.63;;;0.57;;
19846;SDS011;10084;50.518;8.588;2024-02-15T03:12:34;0.83;;;0.70;;
19846;SDS011;10084;50.518;8.588;2024-02-15T03:15:04;0.67;;;0.67;;
19846;SDS011;10084;50.518;8.588;2024-02-15T03:17:37;0.70;;;0.70;;
19846;SDS011;10084;50.518;8.588;2024-02-15T03:20:05;0.53;;;0.53;;
19846;SDS011;10084;50.518;8.588;2024-02-15T03:22:37;0.60;;;0.60;;
19846;SDS011;10084;50.518;8.588;2024-02-15T03:25:06;0.97;;;0.50;;
19846;SDS011;10084;50.518;8.588;2024-02-15T03:27:33;0.87;;;0.60;;
19846;SDS011;10084;50.518;8.588;2024-02-15T03:30:01;0.80;;;0.60;;
19846;SDS011;10084;50.518;8.588;2024-02-15T03:32:28;0.80;;;0.80;;
19846;SDS011;10084;50.518;8.588;2024-02-15T03:34:54;0.70;;;0.43;;
19846;SDS011;10084;50.518;8.588;2024-02-15T03:37:20;1.10;;;1.00;;
19846;SDS011;10084;50.518;8.588;2024-02-15T03:39:46;2.57;;;0.60;;
19846;SDS011;10084;50.518;8.588;2024-02-15T03:42:18;1.00;;;0.93;;
19846;SDS011;10084;50.518;8.588;2024-02-15T03:44:44;0.43;;;0.43;;
19846;SDS011;10084;50.518;8.588;2024-02-15T03:47:10;0.70;;;0.70;;
19846;SDS011;10084;50.518;8.588;2024-02-15T03:49:38;0.63;;;0.63;;
19846;SDS011;10084;50.518;8.588;2024-02-15T03:52:06;0.87;;;0.87;;
19846;SDS011;10084;50.518;8.588;2024-02-15T03:54:33;1.53;;;1.13;;
19846;SDS011;10084;50.518;8.588;2024-02-15T03:56:59;0.73;;;0.73;;
19846;SDS011;10084;50.518;8.588;2024-02-15T03:59:25;1.47;;;0.87;;
19846;SDS011;10084;50.518;8.588;2024-02-15T04:01:54;1.10;;;0.80;;
19846;SDS011;10084;50.518;8.588;2024-02-15T04:04:20;1.03;;;0.93;;
19846;SDS011;10084;50.518;8.588;2024-02-15T04:06:47;1.13;;;0.73;;
19846;SDS011;10084;50.518;8.588;2024-02-15T04:09:17;3.40;;;0.87;;
19846;SDS011;10084;50.518;8.588;2024-02-15T04:11:44;2.60;;;1.43;;
19846;SDS011;10084;50.518;8.588;2024-02-15T04:14:12;5.40;;;1.70;;
19846;SDS011;10084;50.518;8.588;2024-02-15T04:16:39;3.47;;;1.03;;
19846;SDS011;10084;50.518;8.588;2024-02-15T04:19:05;1.40;;;1.30;;
19846;SDS011;10084;50.518;8.588;2024-02-15T04:21:30;2.47;;;1.40;;
19846;SDS011;10084;50.518;8.588;2024-02-15T04:23:56;1.10;;;1.00;;
19846;SDS011;10084;50.518;8.588;2024-02-15T04:26:22;0.70;;;0.70;;
19846;SDS011;10084;50.518;8.588;2024-02-15T04:28:52;2.27;;;2.10;;
19846;SDS011;10084;50.518;8.588;2024-02-15T04:31:18;1.30;;;1.10;;
19846;SDS011;10084;50.518;8.588;2024-02-15T04:33:54;1.53;;;1.40;;
19846;SDS011;10084;50.518;8.588;2024-02-15T04:36:21;1.13;;;0.80;;
19846;SDS011;10084;50.518;8.588;2024-02-15T04:38:51;3.27;;;1.57;;
19846;SDS011;10084;50.518;8.588;2024-02-15T04:41:17;2.03;;;1.77;;
19846;SDS011;10084;50.518;8.588;2024-02-15T04:43:50;2.00;;;1.13;;
19846;SDS011;10084;50.518;8.588;2024-02-15T04:46:17;0.90;;;0.90;;
19846;SDS011;10084;50.518;8.588;2024-02-15T04:48:47;0.93;;;0.80;;
19846;SDS011;10084;50.518;8.588;2024-02-15T04:51:15;0.90;;;0.67;;
19846;SDS011;10084;50.518;8.588;2024-02-15T04:53:45;0.50;;;0.50;;
19846;SDS011;10084;50.518;8.588;2024-02-15T04:56:14;1.00;;;0.90;;
19846;SDS011;10084;50.518;8.588;2024-02-15T04:58:41;2.47;;;0.67;;
19846;SDS011;10084;50.518;8.588;2024-02-15T05:01:13;1.63;;;1.30;;
19846;SDS011;10084;50.518;8.588;2024-02-15T05:03:41;0.60;;;0.60;;
19846;SDS011;10084;50.518;8.588;2024-02-15T05:06:10;1.17;;;0.80;;
19846;SDS011;10084;50.518;8.588;2024-02-15T05:08:40;1.57;;;1.47;;
19846;SDS011;10084;50.518;8.588;2024-02-15T05:11:10;1.30;;;0.83;;
19846;SDS011;10084;50.518;8.588;2024-02-15T05:13:45;1.53;;;1.27;;
19846;SDS011;10084;50.518;8.588;2024-02-15T05:16:11;0.80;;;0.77;;
19846;SDS011;10084;50.518;8.588;2024-02-15T05:18:37;0.97;;;0.80;;
19846;SDS011;10084;50.518;8.588;2024-02-15T05:21:05;1.00;;;0.90;;
19846;SDS011;10084;50.518;8.588;2024-02-15T05:23:35;1.03;;;0.53;;
19846;SDS011;10084;50.518;8.588;2024-02-15T05:26:02;0.70;;;0.70;;
19846;SDS011;10084;50.518;8.588;2024-02-15T05:28:28;0.67;;;0.60;;
19846;SDS011;10084;50.518;8.588;2024-02-15T05:31:13;1.10;;;0.80;;
19846;SDS011;10084;50.518;8.588;2024-02-15T05:33:52;0.77;;;0.60;;
19846;SDS011;10084;50.518;8.588;2024-02-15T05:36:19;0.60;;;0.57;;
19846;SDS011;10084;50.518;8.588;2024-02-15T05:38:55;2.80;;;1.50;;
19846;SDS011;10084;50.518;8.588;2024-02-15T05:41:25;1.23;;;1.10;;
19846;SDS011;10084;50.518;8.588;2024-02-15T05:43:51;2.27;;;1.13;;
19846;SDS011;10084;50.518;8.588;2024-02-15T05:46:22;10.67;;;0.93;;
19846;SDS011;10084;50.518;8.588;2024-02-15T05:48:48;0.93;;;0.87;;
19846;SDS011;10084;50.518;8.588;2024-02-15T05:51:15;3.70;;;0.70;;
19846;SDS011;10084;50.518;8.588;2024-02-15T05:53:41;1.83;;;0.80;;
19846;SDS011;10084;50.518;8.588;2024-02-15T05:56:08;3.07;;;1.00;;
19846;SDS011;10084;50.518;8.588;2024-02-15T05:58:38;1.47;;;1.37;;
19846;SDS011;10084;50.518;8.588;2024-02-15T06:01:05;0.63;;;0.63;;
19846;SDS011;10084;50.518;8.588;2024-02-15T06:03:32;0.97;;;0.93;;
19846;SDS011;10084;50.518;8.588;2024-02-15T06:06:00;3.30;;;1.23;;
19846;SDS011;10084;50.518;8.588;2024-02-15T06:08:27;3.63;;;1.83;;
19846;SDS011;10084;50.518;8.588;2024-02-15T06:10:57;1.60;;;1.03;;
19846;SDS011;10084;50.518;8.588;2024-02-15T06:13:23;1.27;;;0.97;;
19846;SDS011;10084;50.518;8.588;2024-02-15T06:15:49;1.27;;;0.90;;
19846;SDS011;10084;50.518;8.588;2024-02-15T06:18:19;0.50;;;0.50;;
19846;SDS011;10084;50.518;8.588;2024-02-15T06:20:53;0.83;;;0.70;;
19846;SDS011;10084;50.518;8.588;2024-02-15T06:23:22;1.20;;;1.03;;
19846;SDS011;10084;50.518;8.588;2024-02-15T06:25:50;2.27;;;1.03;;
19846;SDS011;10084;50.518;8.588;2024-02-15T06:28:21;3.87;;;1.10;;
19846;SDS011;10084;50.518;8.588;2024-02-15T06:31:09;1.67;;;1.57;;
19846;SDS011;10084;50.518;8.588;2024-02-15T06:33:54;1.70;;;1.60;;
19846;SDS011;10084;50.518;8.588;2024-02-15T06:36:48;2.03;;;1.80;;
19846;SDS011;10084;50.518;8.588;2024-02-15T06:39:33;3.13;;;2.83;;
19846;SDS011;10084;50.518;8.588;2024-02-15T06:44:43;3.60;;;2.10;;
19846;SDS011;10084;50.518;8.588;2024-02-15T06:47:10;2.40;;;2.20;;
19846;SDS011;10084;50.518;8.588;2024-02-15T06:49:37;2.93;;;2.30;;
19846;SDS011;10084;50.518;8.588;2024-02-15T06:52:07;2.57;;;2.33;;
19846;SDS011;10084;50.518;8.588;2024-02-15T06:54:33;3.53;;;2.43;;
19846;SDS011;10084;50.518;8.588;2024-02-15T06:57:03;5.90;;;3.20;;
19846;SDS011;10084;50.518;8.588;2024-02-15T06:59:30;2.57;;;2.37;;
19846;SDS011;10084;50.518;8.588;2024-02-15T07:01:59;4.73;;;3.23;;
19846;SDS011;10084;50.518;8.588;2024-02-15T07:04:26;2.47;;;2.20;;
19846;SDS011;10084;50.518;8.588;2024-02-15T07:06:53;5.30;;;2.90;;
19846;SDS011;10084;50.518;8.588;2024-02-15T07:09:20;4.67;;;3.23;;
19846;SDS011;10084;50.518;8.588;2024-02-15T07:11:48;2.67;;;2.23;;
19846;SDS011;10084;50.518;8.588;2024-02-15T07:14:14;3.50;;;3.07;;
19846;SDS011;10084;50.518;8.588;2024-02-15T07:16:45;3.30;;;3.00;;
19846;SDS011;10084;50.518;8.588;2024-02-15T07:19:11;2.83;;;2.40;;
19846;SDS011;10084;50.518;8.588;2024-02-15T07:21:38;2.40;;;2.20;;
19846;SDS011;10084;50.518;8.588;2024-02-15T07:24:05;2.37;;;2.13;;
19846;SDS011;10084;50.518;8.588;2024-02-15T07:26:31;9.30;;;3.43;;
19846;SDS011;10084;50.518;8.588;2024-02-15T07:29:00;3.47;;;2.60;;
19846;SDS011;10084;50.518;8.588;2024-02-15T07:31:29;2.37;;;2.17;;
19846;SDS011;10084;50.518;8.588;2024-02-15T07:33:55;13.03;;;2.50;;
19846;SDS011;10084;50.518;8.588;2024-02-15T07:36:22;3.33;;;3.03;;
19846;SDS011;10084;50.518;8.588;2024-02-15T07:38:49;2.93;;;2.10;;
19846;SDS011;10084;50.518;8.588;2024-02-15T07:41:17;5.90;;;2.03;;
19846;SDS011;10084;50.518;8.588;2024-02-15T07:43:45;6.97;;;3.53;;
19846;SDS011;10084;50.518;8.588;2024-02-15T07:46:12;2.93;;;2.60;;
19846;SDS011;10084;50.518;8.588;2024-02-15T07:48:42;3.57;;;3.20;;
19846;SDS011;10084;50.518;8.588;2024-02-15T07:51:16;11.47;;;3.13;;
19846;SDS011;10084;50.518;8.588;2024-02-15T07:53:45;2.80;;;2.40;;
19846;SDS011;10084;50.518;8.588;2024-02-15T07:56:12;4.73;;;2.20;;
19846;SDS011;10084;50.518;8.588;2024-02-15T07:58:43;3.20;;;2.57;;
19846;SDS011;10084;50.518;8.588;2024-02-15T08:01:13;2.07;;;1.97;;
19846;SDS011;10084;50.518;8.588;2024-02-15T08:03:42;7.07;;;2.63;;
19846;SDS011;10084;50.518;8.588;2024-02-15T08:06:11;9.90;;;2.93;;
19846;SDS011;10084;50.518;8.588;2024-02-15T08:08:41;7.23;;;3.00;;
19846;SDS011;10084;50.518;8.588;2024-02-15T08:11:11;3.77;;;2.60;;
19846;SDS011;10084;50.518;8.588;2024-02-15T08:13:43;1.90;;;1.80;;
19846;SDS011;10084;50.518;8.588;2024-02-15T08:16:18;2.50;;;1.97;;
19846;SDS011;10084;50.518;8.588;2024-02-15T08:18:46;3.23;;;2.90;;
19846;SDS011;10084;50.518;8.588;2024-02-15T08:21:12;1.70;;;1.60;;
19846;SDS011;10084;50.518;8.588;2024-02-15T08:23:38;3.17;;;2.87;;
19846;SDS011;10084;50.518;8.588;2024-02-15T08:26:04;7.43;;;2.33;;
19846;SDS011;10084;50.518;8.588;2024-02-15T08:28:30;3.03;;;2.40;;
19846;SDS011;10084;50.518;8.588;2024-02-15T08:30:57;9.13;;;2.13;;
19846;SDS011;10084;50.518;8.588;2024-02-15T08:33:23;4.70;;;3.10;;
19846;SDS011;10084;50.518;8.588;2024-02-15T08:35:50;3.07;;;2.80;;
19846;SDS011;10084;50.518;8.588;2024-02-15T08:38:16;2.70;;;2.43;;
19846;SDS011;10084;50.518;8.588;2024-02-15T08:40:46;5.13;;;2.33;;
19846;SDS011;10084;50.518;8.588;2024-02-15T08:43:12;5.40;;;2.93;;
19846;SDS011;10084;50.518;8.588;2024-02-15T08:45:40;3.93;;;2.40;;
19846;SDS011;10084;50.518;8.588;2024-02-15T08:48:07;6.70;;;2.30;;
19846;SDS011;10084;50.518;8.588;2024-02-15T08:50:33;4.30;;;2.27;;
19846;SDS011;10084;50.518;8.588;2024-02-15T08:53:01;7.77;;;2.87;;
19846;SDS011;10084;50.518;8.588;2024-02-15T08:55:31;5.63;;;2.83;;
19846;SDS011;10084;50.518;8.588;2024-02-15T08:58:00;1.50;;;1.40;;
19846;SDS011;10084;50.518;8.588;2024-02-15T09:00:26;2.70;;;2.20;;
19846;SDS011;10084;50.518;8.588;2024-02-15T09:02:52;2.50;;;1.70;;
19846;SDS011;10084;50.518;8.588;2024-02-15T09:05:18;5.10;;;2.27;;
19846;SDS011;10084;50.518;8.588;2024-02-15T09:07:44;2.40;;;1.80;;
19846;SDS011;10084;50.518;8.588;2024-02-15T09:10:14;2.37;;;1.50;;
19846;SDS011;10084;50.518;8.588;2024-02-15T09:12:42;3.00;;;2.73;;
19846;SDS011;10084;50.518;8.588;2024-02-15T09:15:12;3.93;;;2.80;;
19846;SDS011;10084;50.518;8.588;2024-02-15T09:17:39;2.73;;;2.53;;
19846;SDS011;10084;50.518;8.588;2024-02-15T09:20:06;2.27;;;1.67;;
19846;SDS011;10084;50.518;8.588;2024-02-15T09:22:40;2.20;;;1.83;;
19846;SDS011;10084;50.518;8.588;2024-02-15T09:25:13;2.40;;;1.80;;
19846;SDS011;10084;50.518;8.588;2024-02-15T09:27:40;4.47;;;2.73;;
19846;SDS011;10084;50.518;8.588;2024-02-15T09:30:06;3.63;;;2.37;;
19846;SDS011;10084;50.518;8.588;2024-02-15T09:32:38;5.27;;;3.43;;
19846;SDS011;10084;50.518;8.588;2024-02-15T09:35:05;3.77;;;2.57;;
19846;SDS011;10084;50.518;8.588;2024-02-15T09:37:35;2.40;;;1.93;;
19846;SDS011;10084;50.518;8.588;2024-02-15T09:40:07;2.50;;;2.13;;
19846;SDS011;10084;50.518;8.588;2024-02-15T09:42:37;6.90;;;2.47;;
19846;SDS011;10084;50.518;8.588;2024-02-15T09:45:05;13.20;;;2.43;;
19846;SDS011;10084;50.518;8.588;2024-02-15T09:47:35;6.37;;;2.80;;
19846;SDS011;10084;50.518;8.588;2024-02-15T09:50:12;2.90;;;2.60;;
19846;SDS011;10084;50.518;8.588;2024-02-15T09:52:49;2.00;;;1.80;;
19846;SDS011;10084;50.518;8.588;2024-02-15T09:55:27;5.17;;;3.37;;
19846;SDS011;10084;50.518;8.588;2024-02-15T09:57:54;2.47;;;2.00;;
19846;SDS011;10084;50.518;8.588;2024-02-15T10:00:20;8.17;;;2.37;;
19846;SDS011;10084;50.518;8.588;2024-02-15T10:02:47;3.03;;;2.40;;
19846;SDS011;10084;50.518;8.588;2024-02-15T10:05:16;3.73;;;1.93;;
19846;SDS011;10084;50.518;8.588;2024-02-15T10:07:44;2.93;;;2.13;;
19846;SDS011;10084;50.518;8.588;2024-02-15T10:10:23;2.63;;;2.30;;
19846;SDS011;10084;50.518;8.588;2024-02-15T10:12:55;2.07;;;1.73;;
19846;SDS011;10084;50.518;8.588;2024-02-15T10:15:28;11.63;;;2.10;;
19846;SDS011;10084;50.518;8.588;2024-02-15T10:17:55;2.53;;;2.10;;
19846;SDS011;10084;50.518;8.588;2024-02-15T10:20:24;4.80;;;2.00;;
19846;SDS011;10084;50.518;8.588;2024-02-15T10:23:12;4.60;;;1.63;;
19846;SDS011;10084;50.518;8.588;2024-02-15T10:25:38;4.87;;;2.50;;
19846;SDS011;10084;50.518;8.588;2024-02-15T10:28:10;2.63;;;2.27;;
19846;SDS011;10084;50.518;8.588;2024-02-15T10:30:38;5.50;;;2.53;;
19846;SDS011;10084;50.518;8.588;2024-02-15T10:33:05;3.13;;;2.70;;
19846;SDS011;10084;50.518;8.588;2024-02-15T10:35:35;4.53;;;1.90;;
19846;SDS011;10084;50.518;8.588;2024-02-15T10:38:11;4.07;;;1.77;;
19846;SDS011;10084;50.518;8.588;2024-02-15T10:40:41;5.90;;;2.97;;
19846;SDS011;10084;50.518;8.588;2024-02-15T10:43:08;4.13;;;2.10;;
19846;SDS011;10084;50.518;8.588;2024-02-15T10:45:39;2.70;;;2.40;;
19846;SDS011;10084;50.518;8.588;2024-02-15T10:48:08;6.23;;;1.90;;
19846;SDS011;10084;50.518;8.588;2024-02-15T10:50:35;4.73;;;1.83;;
19846;SDS011;10084;50.518;8.588;2024-02-15T10:53:04;3.47;;;1.93;;
19846;SDS011;10084;50.518;8.588;2024-02-15T10:55:48;2.03;;;1.60;;
19846;SDS011;10084;50.518;8.588;2024-02-15T10:58:21;2.77;;;1.47;;
19846;SDS011;10084;50.518;8.588;2024-02-15T11:00:51;1.43;;;1.30;;
19846;SDS011;10084;50.518;8.588;2024-02-15T11:03:40;4.97;;;1.37;;
19846;SDS011;10084;50.518;8.588;2024-02-15T11:06:17;2.27;;;1.30;;
19846;SDS011;10084;50.518;8.588;2024-02-15T11:08:47;1.67;;;1.20;;
19846;SDS011;10084;50.518;8.588;2024-02-15T11:11:14;1.30;;;1.10;;
19846;SDS011;10084;50.518;8.588;2024-02-15T11:13:40;1.20;;;1.10;;
19846;SDS011;10084;50.518;8.588;2024-02-15T11:16:08;2.10;;;1.40;;
19846;SDS011;10084;50.518;8.588;2024-02-15T11:18:49;4.30;;;1.03;;
19846;SDS011;10084;50.518;8.588;2024-02-15T11:24:25;1.10;;;1.00;;
19846;SDS011;10084;50.518;8.588;2024-02-15T11:26:58;1.43;;;1.07;;
19846;SDS011;10084;50.518;8.588;2024-02-15T11:32:37;1.27;;;1.17;;
19846;SDS011;10084;50.518;8.588;2024-02-15T11:40:23;2.43;;;0.70;;
19846;SDS011;10084;50.518;8.588;2024-02-15T11:43:01;0.73;;;0.73;;
19846;SDS011;10084;50.518;8.588;2024-02-15T11:45:29;1.13;;;1.00;;
19846;SDS011;10084;50.518;8.588;2024-02-15T11:47:58;0.63;;;0.63;;
19846;SDS011;10084;50.518;8.588;2024-02-15T11:50:27;5.63;;;1.20;;
19846;SDS011;10084;50.518;8.588;2024-02-15T11:53:01;1.07;;;0.97;;
19846;SDS011;10084;50.518;8.588;2024-02-15T11:55:31;1.40;;;1.30;;
19846;SDS011;10084;50.518;8.588;2024-02-15T11:57:58;1.40;;;0.80;;
19846;SDS011;10084;50.518;8.588;2024-02-15T12:00:47;0.83;;;0.80;;
19846;SDS011;10084;50.518;8.588;2024-02-15T12:03:31;1.47;;;1.00;;
19846;SDS011;10084;50.518;8.588;2024-02-15T12:06:19;0.70;;;0.53;;
19846;SDS011;10084;50.518;8.588;2024-02-15T12:09:03;1.13;;;1.07;;
19846;SDS011;10084;50.518;8.588;2024-02-15T12:11:47;0.87;;;0.87;;
19846;SDS011;10084;50.518;8.588;2024-02-15T12:14:42;1.37;;;0.70;;
19846;SDS011;10084;50.518;8.588;2024-02-15T12:17:26;0.83;;;0.73;;
19846;SDS011;10084;50.518;8.588;2024-02-15T12:20:10;2.03;;;0.80;;
19846;SDS011;10084;50.518;8.588;2024-02-15T12:25:12;0.90;;;0.70;;
19846;SDS011;10084;50.518;8.588;2024-02-15T12:27:46;0.80;;;0.80;;
19846;SDS011;10084;50.518;8.588;2024-02-15T12:30:18;1.00;;;0.73;;
19846;SDS011;10084;50.518;8.588;2024-02-15T12:32:48;0.83;;;0.70;;
19846;SDS011;10084;50.518;8.588;2024-02-15T12:35:15;0.70;;;0.57;;
19846;SDS011;10084;50.518;8.588;2024-02-15T12:37:45;0.63;;;0.63;;
19846;SDS011;10084;50.518;8.588;2024-02-15T12:40:19;0.97;;;0.60;;
19846;SDS011;10084;50.518;8.588;2024-02-15T12:42:47;7.57;;;0.70;;
19846;SDS011;10084;50.518;8.588;2024-02-15T12:45:17;0.50;;;0.50;;
19846;SDS011;10084;50.518;8.588;2024-02-15T12:47:50;0.87;;;0.80;;
19846;SDS011;10084;50.518;8.588;2024-02-15T12:50:20;4.10;;;1.10;;
19846;SDS011;10084;50.518;8.588;2024-02-15T12:52:48;2.93;;;0.77;;
19846;SDS011;10084;50.518;8.588;2024-02-15T12:55:15;1.73;;;0.80;;
19846;SDS011;10084;50.518;8.588;2024-02-15T12:57:43;1.93;;;0.87;;
19846;SDS011;10084;50.518;8.588;2024-02-15T13:00:11;1.27;;;0.73;;
19846;SDS011;10084;50.518;8.588;2024-02-15T13:02:43;0.57;;;0.50;;
19846;SDS011;10084;50.518;8.588;2024-02-15T13:05:10;1.60;;;0.47;;
19846;SDS011;10084;50.518;8.588;2024-02-15T13:07:36;8.73;;;0.40;;
19846;SDS011;10084;50.518;8.588;2024-02-15T13:10:03;1.50;;;0.83;;
19846;SDS011;10084;50.518;8.588;2024-02-15T13:12:36;1.60;;;0.53;;
19846;SDS011;10084;50.518;8.588;2024-02-15T13:15:03;1.97;;;0.43;;
19846;SDS011;10084;50.518;8.588;2024-02-15T13:17:31;3.27;;;0.27;;
19846;SDS011;10084;50.518;8.588;2024-02-15T13:19:59;0.20;;;0.20;;
19846;SDS011;10084;50.518;8.588;2024-02-15T13:22:33;0.07;;;0.07;;
19846;SDS011;10084;50.518;8.588;2024-02-15T13:25:01;0.10;;;0.10;;
19846;SDS011;10084;50.518;8.588;2024-02-15T13:27:28;4.00;;;0.20;;
19846;SDS011;10084;50.518;8.588;2024-02-15T13:29:54;0.07;;;0.00;;
19846;SDS011;10084;50.518;8.588;2024-02-15T13:32:20;1.33;;;0.00;;
19846;SDS011;10084;50.518;8.588;2024-02-15T13:34:47;0.47;;;0.20;;
19846;SDS011;10084;50.518;8.588;2024-02-15T13:37:20;0.13;;;0.10;;
19846;SDS011;10084;50.518;8.588;2024-02-15T13:39:49;0.00;;;0.00;;
19846;SDS011;10084;50.518;8.588;2024-02-15T13:42:16;0.53;;;0.20;;
19846;SDS011;10084;50.518;8.588;2024-02-15T13:44:45;1.17;;;0.17;;
19846;SDS011;10084;50.518;8.588;2024-02-15T13:47:12;0.20;;;0.10;;
19846;SDS011;10084;50.518;8.588;2024-02-15T13:49:38;4.47;;;0.27;;
19846;SDS011;10084;50.518;8.588;2024-02-15T13:52:07;1.80;;;0.10;;
19846;SDS011;10084;50.518;8.588;2024-02-15T13:54:36;0.37;;;0.10;;
19846;SDS011;10084;50.518;8.588;2024-02-15T13:57:02;2.27;;;0.20;;
19846;SDS011;10084;50.518;8.588;2024-02-15T13:59:28;0.57;;;0.17;;
19846;SDS011;10084;50.518;8.588;2024-02-15T14:01:54;4.80;;;0.20;;
19846;SDS011;10084;50.518;8.588;2024-02-15T14:04:20;2.60;;;0.10;;
19846;SDS011;10084;50.518;8.588;2024-02-15T14:06:47;0.17;;;0.10;;
19846;SDS011;10084;50.518;8.588;2024-02-15T14:09:13;0.57;;;0.30;;
19846;SDS011;10084;50.518;8.588;2024-02-15T14:11:39;0.23;;;0.10;;
19846;SDS011;10084;50.518;8.588;2024-02-15T14:14:05;5.83;;;0.30;;
19846;SDS011;10084;50.518;8.588;2024-02-15T14:16:31;0.50;;;0.20;;
19846;SDS011;10084;50.518;8.588;2024-02-15T14:18:58;7.30;;;0.37;;
19846;SDS011;10084;50.518;8.588;2024-02-15T14:21:24;1.80;;;0.20;;
19846;SDS011;10084;50.518;8.588;2024-02-15T14:23:51;0.30;;;0.00;;
19846;SDS011;10084;50.518;8.588;2024-02-15T14:26:16;2.00;;;0.33;;
19846;SDS011;10084;50.518;8.588;2024-02-15T14:28:43;0.53;;;0.27;;
19846;SDS011;10084;50.518;8.588;2024-02-15T14:31:12;2.33;;;0.27;;
19846;SDS011;10084;50.518;8.588;2024-02-15T14:34:01;0.33;;;0.17;;
19846;SDS011;10084;50.518;8.588;2024-02-15T14:36:27;0.00;;;0.00;;
19846;SDS011;10084;50.518;8.588;2024-02-15T14:38:52;0.10;;;0.10;;
19846;SDS011;10084;50.518;8.588;2024-02-15T14:41:19;0.10;;;0.10;;
19846;SDS011;10084;50.518;8.588;2024-02-15T14:43:46;1.90;;;0.23;;
19846;SDS011;10084;50.518;8.588;2024-02-15T14:46:11;0.43;;;0.10;;
19846;SDS011;10084;50.518;8.588;2024-02-15T14:48:37;0.20;;;0.10;;
19846;SDS011;10084;50.518;8.588;2024-02-15T14:51:05;0.67;;;0.40;;
19846;SDS011;10084;50.518;8.588;2024-02-15T14:53:31;0.70;;;0.20;;
19846;SDS011;10084;50.518;8.588;2024-02-15T14:55:57;0.00;;;0.00;;
19846;SDS011;10084;50.518;8.588;2024-02-15T14:58:23;0.27;;;0.27;;
19846;SDS011;10084;50.518;8.588;2024-02-15T15:00:48;1.20;;;0.20;;
19846;SDS011;10084;50.518;8.588;2024-02-15T15:03:14;5.10;;;0.30;;
19846;SDS011;10084;50.518;8.588;2024-02-15T15:05:41;0.63;;;0.40;;
19846;SDS011;10084;50.518;8.588;2024-02-15T15:08:26;2.83;;;0.23;;
19846;SDS011;10084;50.518;8.588;2024-02-15T15:11:10;0.20;;;0.20;;
19846;SDS011;10084;50.518;8.588;2024-02-15T15:13:55;3.37;;;0.20;;
19846;SDS011;10084;50.518;8.588;2024-02-15T15:16:27;2.50;;;0.20;;